sensor_id;sensor_type;location;lat;lon;timestamp;P1;durP1;ratioP1;P2;durP2;ratioP2
72156;SDS011;60035;52.122;5.406;2023-07-20T00:01:29;6.80;;;3.22;;
72156;SDS011;60035;52.122;5.406;2023-07-20T00:03:55;8.45;;;3.42;;
72156;SDS011;60035;52.122;5.406;2023-07-20T00:06:22;8.60;;;3.35;;
72156;SDS011;60035;52.122;5.406;2023-07-20T00:08:54;8.70;;;3.50;;
72156;SDS011;60035;52.122;5.406;2023-07-20T00:11:25;6.75;;;2.97;;
72156;SDS011;60035;52.122;5.406;2023-07-20T00:13:53;7.60;;;2.92;;
72156;SDS011;60035;52.122;5.406;2023-07-20T00:16:19;6.07;;;2.78;;
72156;SDS011;60035;52.122;5.406;2023-07-20T00:18:47;6.43;;;2.70;;
72156;SDS011;60035;52.122;5.406;2023-07-20T00:21:14;6.50;;;2.45;;
72156;SDS011;60035;52.122;5.406;2023-07-20T00:23:40;8.68;;;2.72;;
72156;SDS011;60035;52.122;5.406;2023-07-20T00:26:09;5.05;;;2.10;;
72156;SDS011;60035;52.122;5.406;2023-07-20T00:28:36;4.45;;;1.90;;
72156;SDS011;60035;52.122;5.406;2023-07-20T00:31:02;6.38;;;2.00;;
72156;SDS011;60035;52.122;5.406;2023-07-20T00:33:29;5.68;;;2.22;;
72156;SDS011;60035;52.122;5.406;2023-07-20T00:35:56;4.45;;;1.83;;
72156;SDS011;60035;52.122;5.406;2023-07-20T00:38:22;4.78;;;1.90;;
72156;SDS011;60035;52.122;5.406;2023-07-20T00:40:49;3.60;;;1.50;;
72156;SDS011;60035;52.122;5.406;2023-07-20T00:43:15;3.53;;;1.55;;
72156;SDS011;60035;52.122;5.406;2023-07-20T00:45:42;3.28;;;1.50;;
72156;SDS011;60035;52.122;5.406;2023-07-20T00:48:10;3.45;;;1.33;;
72156;SDS011;60035;52.122;5.406;2023-07-20T00:50:39;3.67;;;1.40;;
72156;SDS011;60035;52.122;5.406;2023-07-20T00:53:06;4.07;;;1.77;;
72156;SDS011;60035;52.122;5.406;2023-07-20T00:55:33;4.63;;;1.35;;
72156;SDS011;60035;52.122;5.406;2023-07-20T00:58:00;2.97;;;1.20;;
72156;SDS011;60035;52.122;5.406;2023-07-20T01:00:27;4.15;;;1.50;;
72156;SDS011;60035;52.122;5.406;2023-07-20T01:02:54;3.25;;;1.40;;
72156;SDS011;60035;52.122;5.406;2023-07-20T01:05:21;2.80;;;1.42;;
72156;SDS011;60035;52.122;5.406;2023-07-20T01:08:07;3.10;;;1.20;;
72156;SDS011;60035;52.122;5.406;2023-07-20T01:10:57;3.00;;;1.38;;
72156;SDS011;60035;52.122;5.406;2023-07-20T01:13:32;3.20;;;1.20;;
72156;SDS011;60035;52.122;5.406;2023-07-20T01:16:02;3.00;;;1.55;;
72156;SDS011;60035;52.122;5.406;2023-07-20T01:18:29;3.63;;;1.42;;
72156;SDS011;60035;52.122;5.406;2023-07-20T01:20:58;3.85;;;1.50;;
72156;SDS011;60035;52.122;5.406;2023-07-20T01:31:36;3.08;;;1.13;;
72156;SDS011;60035;52.122;5.406;2023-07-20T01:34:05;2.83;;;1.30;;
72156;SDS011;60035;52.122;5.406;2023-07-20T01:36:34;3.25;;;1.25;;
72156;SDS011;60035;52.122;5.406;2023-07-20T01:39:02;4.85;;;1.60;;
72156;SDS011;60035;52.122;5.406;2023-07-20T01:41:31;3.42;;;1.15;;
72156;SDS011;60035;52.122;5.406;2023-07-20T01:43:58;3.30;;;1.23;;
72156;SDS011;60035;52.122;5.406;2023-07-20T01:46:25;3.00;;;1.40;;
72156;SDS011;60035;52.122;5.406;2023-07-20T01:48:57;4.38;;;1.45;;
72156;SDS011;60035;52.122;5.406;2023-07-20T01:51:23;3.28;;;1.42;;
72156;SDS011;60035;52.122;5.406;2023-07-20T01:53:50;4.38;;;1.40;;
72156;SDS011;60035;52.122;5.406;2023-07-20T01:56:16;3.50;;;1.27;;
72156;SDS011;60035;52.122;5.406;2023-07-20T01:58:43;3.03;;;1.20;;
72156;SDS011;60035;52.122;5.406;2023-07-20T02:01:10;3.30;;;1.30;;
72156;SDS011;60035;52.122;5.406;2023-07-20T02:03:36;1.88;;;1.05;;
72156;SDS011;60035;52.122;5.406;2023-07-20T02:06:03;2.65;;;1.00;;
72156;SDS011;60035;52.122;5.406;2023-07-20T02:08:29;2.80;;;1.00;;
72156;SDS011;60035;52.122;5.406;2023-07-20T02:10:57;3.03;;;1.08;;
72156;SDS011;60035;52.122;5.406;2023-07-20T02:13:23;2.55;;;1.27;;
72156;SDS011;60035;52.122;5.406;2023-07-20T02:15:49;2.88;;;1.17;;
72156;SDS011;60035;52.122;5.406;2023-07-20T02:18:17;4.60;;;1.48;;
72156;SDS011;60035;52.122;5.406;2023-07-20T02:20:46;3.42;;;1.33;;
72156;SDS011;60035;52.122;5.406;2023-07-20T02:23:12;4.30;;;1.20;;
72156;SDS011;60035;52.122;5.406;2023-07-20T02:25:40;4.78;;;1.50;;
72156;SDS011;60035;52.122;5.406;2023-07-20T02:28:07;2.80;;;1.20;;
72156;SDS011;60035;52.122;5.406;2023-07-20T02:30:37;3.42;;;1.20;;
72156;SDS011;60035;52.122;5.406;2023-07-20T02:33:05;3.17;;;1.20;;
72156;SDS011;60035;52.122;5.406;2023-07-20T02:35:32;3.08;;;1.50;;
72156;SDS011;60035;52.122;5.406;2023-07-20T02:37:59;3.45;;;1.10;;
72156;SDS011;60035;52.122;5.406;2023-07-20T02:40:25;2.92;;;1.08;;
72156;SDS011;60035;52.122;5.406;2023-07-20T02:42:53;3.67;;;1.13;;
72156;SDS011;60035;52.122;5.406;2023-07-20T02:45:19;2.65;;;1.20;;
72156;SDS011;60035;52.122;5.406;2023-07-20T02:47:46;4.28;;;1.25;;
72156;SDS011;60035;52.122;5.406;2023-07-20T02:50:12;3.60;;;1.40;;
72156;SDS011;60035;52.122;5.406;2023-07-20T02:52:40;2.85;;;1.33;;
72156;SDS011;60035;52.122;5.406;2023-07-20T02:55:07;6.53;;;1.20;;
72156;SDS011;60035;52.122;5.406;2023-07-20T02:57:34;3.88;;;1.23;;
72156;SDS011;60035;52.122;5.406;2023-07-20T03:00:01;3.17;;;1.08;;
72156;SDS011;60035;52.122;5.406;2023-07-20T03:02:30;2.90;;;1.30;;
72156;SDS011;60035;52.122;5.406;2023-07-20T03:04:56;2.28;;;1.17;;
72156;SDS011;60035;52.122;5.406;2023-07-20T03:07:26;2.72;;;1.17;;
72156;SDS011;60035;52.122;5.406;2023-07-20T03:09:54;2.65;;;1.17;;
72156;SDS011;60035;52.122;5.406;2023-07-20T03:12:21;2.95;;;1.25;;
72156;SDS011;60035;52.122;5.406;2023-07-20T03:14:48;3.05;;;1.15;;
72156;SDS011;60035;52.122;5.406;2023-07-20T03:17:14;4.30;;;1.08;;
72156;SDS011;60035;52.122;5.406;2023-07-20T03:19:41;3.55;;;1.20;;
72156;SDS011;60035;52.122;5.406;2023-07-20T03:22:12;2.75;;;1.40;;
72156;SDS011;60035;52.122;5.406;2023-07-20T03:24:38;3.17;;;1.23;;
72156;SDS011;60035;52.122;5.406;2023-07-20T03:27:05;4.32;;;1.60;;
72156;SDS011;60035;52.122;5.406;2023-07-20T03:29:32;4.13;;;1.30;;
72156;SDS011;60035;52.122;5.406;2023-07-20T03:31:59;3.03;;;1.20;;
72156;SDS011;60035;52.122;5.406;2023-07-20T03:34:26;3.42;;;1.17;;
72156;SDS011;60035;52.122;5.406;2023-07-20T03:36:52;3.38;;;1.38;;
72156;SDS011;60035;52.122;5.406;2023-07-20T03:39:19;4.28;;;1.60;;
72156;SDS011;60035;52.122;5.406;2023-07-20T03:41:46;3.13;;;1.50;;
72156;SDS011;60035;52.122;5.406;2023-07-20T03:44:12;4.00;;;1.52;;
72156;SDS011;60035;52.122;5.406;2023-07-20T03:46:39;5.60;;;1.90;;
72156;SDS011;60035;52.122;5.406;2023-07-20T03:49:06;4.05;;;1.48;;
72156;SDS011;60035;52.122;5.406;2023-07-20T03:51:32;3.67;;;1.60;;
72156;SDS011;60035;52.122;5.406;2023-07-20T03:53:59;3.35;;;1.60;;
72156;SDS011;60035;52.122;5.406;2023-07-20T03:56:25;4.38;;;1.85;;
72156;SDS011;60035;52.122;5.406;2023-07-20T03:58:52;3.60;;;1.50;;
72156;SDS011;60035;52.122;5.406;2023-07-20T04:01:19;3.65;;;1.50;;
72156;SDS011;60035;52.122;5.406;2023-07-20T04:03:45;3.90;;;1.42;;
72156;SDS011;60035;52.122;5.406;2023-07-20T04:06:15;2.78;;;1.30;;
72156;SDS011;60035;52.122;5.406;2023-07-20T04:08:44;3.72;;;1.20;;
72156;SDS011;60035;52.122;5.406;2023-07-20T04:11:10;3.50;;;1.30;;
72156;SDS011;60035;52.122;5.406;2023-07-20T04:13:37;3.90;;;1.63;;
72156;SDS011;60035;52.122;5.406;2023-07-20T04:16:03;4.35;;;1.70;;
72156;SDS011;60035;52.122;5.406;2023-07-20T04:18:30;5.85;;;1.67;;
72156;SDS011;60035;52.122;5.406;2023-07-20T04:20:57;4.05;;;1.70;;
72156;SDS011;60035;52.122;5.406;2023-07-20T04:23:23;4.53;;;1.77;;
72156;SDS011;60035;52.122;5.406;2023-07-20T04:25:50;4.15;;;1.70;;
72156;SDS011;60035;52.122;5.406;2023-07-20T04:28:18;4.93;;;1.90;;
72156;SDS011;60035;52.122;5.406;2023-07-20T04:30:44;4.05;;;1.73;;
72156;SDS011;60035;52.122;5.406;2023-07-20T04:33:11;2.90;;;1.42;;
72156;SDS011;60035;52.122;5.406;2023-07-20T04:35:47;4.55;;;1.67;;
72156;SDS011;60035;52.122;5.406;2023-07-20T04:38:18;4.93;;;1.70;;
72156;SDS011;60035;52.122;5.406;2023-07-20T04:40:46;4.80;;;1.80;;
72156;SDS011;60035;52.122;5.406;2023-07-20T04:43:15;4.07;;;1.60;;
72156;SDS011;60035;52.122;5.406;2023-07-20T04:45:43;4.57;;;1.60;;
72156;SDS011;60035;52.122;5.406;2023-07-20T04:48:10;4.55;;;1.88;;
72156;SDS011;60035;52.122;5.406;2023-07-20T04:50:42;4.43;;;1.83;;
72156;SDS011;60035;52.122;5.406;2023-07-20T04:53:10;4.95;;;2.10;;
72156;SDS011;60035;52.122;5.406;2023-07-20T04:55:40;5.00;;;1.80;;
72156;SDS011;60035;52.122;5.406;2023-07-20T04:58:17;4.97;;;2.13;;
72156;SDS011;60035;52.122;5.406;2023-07-20T05:00:50;5.82;;;2.00;;
72156;SDS011;60035;52.122;5.406;2023-07-20T05:03:17;6.25;;;2.47;;
72156;SDS011;60035;52.122;5.406;2023-07-20T05:05:44;5.22;;;2.10;;
72156;SDS011;60035;52.122;5.406;2023-07-20T05:08:14;5.13;;;2.17;;
72156;SDS011;60035;52.122;5.406;2023-07-20T05:10:42;5.40;;;2.08;;
72156;SDS011;60035;52.122;5.406;2023-07-20T05:13:08;7.53;;;2.63;;
72156;SDS011;60035;52.122;5.406;2023-07-20T05:15:35;5.70;;;2.30;;
72156;SDS011;60035;52.122;5.406;2023-07-20T05:18:02;5.55;;;2.45;;
72156;SDS011;60035;52.122;5.406;2023-07-20T05:20:28;6.22;;;2.20;;
72156;SDS011;60035;52.122;5.406;2023-07-20T05:22:55;6.63;;;2.70;;
72156;SDS011;60035;52.122;5.406;2023-07-20T05:25:22;5.72;;;2.35;;
72156;SDS011;60035;52.122;5.406;2023-07-20T05:27:49;5.60;;;2.30;;
72156;SDS011;60035;52.122;5.406;2023-07-20T05:30:16;5.93;;;2.35;;
72156;SDS011;60035;52.122;5.406;2023-07-20T05:32:43;6.63;;;2.65;;
72156;SDS011;60035;52.122;5.406;2023-07-20T05:35:11;5.97;;;2.55;;
72156;SDS011;60035;52.122;5.406;2023-07-20T05:37:38;6.15;;;2.30;;
72156;SDS011;60035;52.122;5.406;2023-07-20T05:40:05;7.95;;;2.40;;
72156;SDS011;60035;52.122;5.406;2023-07-20T05:42:34;5.68;;;2.00;;
72156;SDS011;60035;52.122;5.406;2023-07-20T05:45:00;5.45;;;2.17;;
72156;SDS011;60035;52.122;5.406;2023-07-20T05:47:27;7.60;;;2.15;;
72156;SDS011;60035;52.122;5.406;2023-07-20T05:49:53;6.05;;;1.98;;
72156;SDS011;60035;52.122;5.406;2023-07-20T05:52:20;5.60;;;2.05;;
72156;SDS011;60035;52.122;5.406;2023-07-20T05:54:46;5.30;;;2.03;;
72156;SDS011;60035;52.122;5.406;2023-07-20T05:57:13;4.53;;;1.67;;
72156;SDS011;60035;52.122;5.406;2023-07-20T05:59:39;4.97;;;1.65;;
72156;SDS011;60035;52.122;5.406;2023-07-20T06:02:10;3.05;;;1.30;;
72156;SDS011;60035;52.122;5.406;2023-07-20T06:04:38;3.50;;;1.52;;
72156;SDS011;60035;52.122;5.406;2023-07-20T06:07:05;7.43;;;1.73;;
72156;SDS011;60035;52.122;5.406;2023-07-20T06:09:34;5.55;;;1.55;;
72156;SDS011;60035;52.122;5.406;2023-07-20T06:12:00;3.20;;;1.40;;
72156;SDS011;60035;52.122;5.406;2023-07-20T06:14:27;3.45;;;1.33;;
72156;SDS011;60035;52.122;5.406;2023-07-20T06:16:54;4.63;;;1.52;;
72156;SDS011;60035;52.122;5.406;2023-07-20T06:19:20;4.35;;;1.30;;
72156;SDS011;60035;52.122;5.406;2023-07-20T06:22:10;3.85;;;1.23;;
72156;SDS011;60035;52.122;5.406;2023-07-20T06:24:35;2.92;;;1.33;;
72156;SDS011;60035;52.122;5.406;2023-07-20T06:27:02;2.40;;;1.08;;
72156;SDS011;60035;52.122;5.406;2023-07-20T06:29:29;2.90;;;1.13;;
72156;SDS011;60035;52.122;5.406;2023-07-20T06:31:55;5.65;;;1.65;;
72156;SDS011;60035;52.122;5.406;2023-07-20T06:34:22;3.67;;;1.30;;
72156;SDS011;60035;52.122;5.406;2023-07-20T06:36:49;2.95;;;1.20;;
72156;SDS011;60035;52.122;5.406;2023-07-20T06:39:16;2.65;;;1.13;;
72156;SDS011;60035;52.122;5.406;2023-07-20T06:41:45;3.28;;;1.02;;
72156;SDS011;60035;52.122;5.406;2023-07-20T06:44:12;2.20;;;0.70;;
72156;SDS011;60035;52.122;5.406;2023-07-20T06:46:38;1.95;;;0.90;;
72156;SDS011;60035;52.122;5.406;2023-07-20T06:49:06;1.48;;;0.80;;
72156;SDS011;60035;52.122;5.406;2023-07-20T06:51:36;2.42;;;1.00;;
72156;SDS011;60035;52.122;5.406;2023-07-20T06:54:03;2.88;;;1.00;;
72156;SDS011;60035;52.122;5.406;2023-07-20T06:56:30;3.55;;;0.90;;
72156;SDS011;60035;52.122;5.406;2023-07-20T06:58:59;2.15;;;0.70;;
72156;SDS011;60035;52.122;5.406;2023-07-20T07:01:25;2.22;;;0.70;;
72156;SDS011;60035;52.122;5.406;2023-07-20T07:03:52;1.35;;;0.68;;
72156;SDS011;60035;52.122;5.406;2023-07-20T07:06:21;2.33;;;0.60;;
72156;SDS011;60035;52.122;5.406;2023-07-20T07:08:50;1.33;;;0.82;;
72156;SDS011;60035;52.122;5.406;2023-07-20T07:11:16;2.45;;;0.60;;
72156;SDS011;60035;52.122;5.406;2023-07-20T07:13:43;1.85;;;0.70;;
72156;SDS011;60035;52.122;5.406;2023-07-20T07:16:12;2.17;;;0.80;;
72156;SDS011;60035;52.122;5.406;2023-07-20T07:18:46;1.95;;;0.68;;
72156;SDS011;60035;52.122;5.406;2023-07-20T07:21:12;1.77;;;0.73;;
72156;SDS011;60035;52.122;5.406;2023-07-20T07:23:39;1.73;;;0.70;;
72156;SDS011;60035;52.122;5.406;2023-07-20T07:26:08;3.70;;;0.75;;
72156;SDS011;60035;52.122;5.406;2023-07-20T07:28:36;2.88;;;0.70;;
72156;SDS011;60035;52.122;5.406;2023-07-20T07:31:06;3.25;;;0.80;;
72156;SDS011;60035;52.122;5.406;2023-07-20T07:33:33;1.58;;;0.70;;
72156;SDS011;60035;52.122;5.406;2023-07-20T07:36:01;3.53;;;0.88;;
72156;SDS011;60035;52.122;5.406;2023-07-20T07:38:28;2.63;;;0.60;;
72156;SDS011;60035;52.122;5.406;2023-07-20T07:41:14;1.95;;;0.77;;
72156;SDS011;60035;52.122;5.406;2023-07-20T07:43:41;1.33;;;0.80;;
72156;SDS011;60035;52.122;5.406;2023-07-20T07:46:08;2.50;;;0.68;;
72156;SDS011;60035;52.122;5.406;2023-07-20T07:48:35;2.88;;;1.00;;
72156;SDS011;60035;52.122;5.406;2023-07-20T07:51:02;2.33;;;0.60;;
72156;SDS011;60035;52.122;5.406;2023-07-20T07:53:28;2.08;;;0.60;;
72156;SDS011;60035;52.122;5.406;2023-07-20T07:55:55;1.80;;;0.52;;
72156;SDS011;60035;52.122;5.406;2023-07-20T07:58:22;1.52;;;0.60;;
72156;SDS011;60035;52.122;5.406;2023-07-20T08:00:49;2.25;;;0.63;;
72156;SDS011;60035;52.122;5.406;2023-07-20T08:03:15;2.50;;;0.70;;
72156;SDS011;60035;52.122;5.406;2023-07-20T08:05:42;1.70;;;0.50;;
72156;SDS011;60035;52.122;5.406;2023-07-20T08:08:09;2.17;;;0.52;;
72156;SDS011;60035;52.122;5.406;2023-07-20T08:10:36;1.77;;;0.70;;
72156;SDS011;60035;52.122;5.406;2023-07-20T08:13:02;1.20;;;0.55;;
72156;SDS011;60035;52.122;5.406;2023-07-20T08:15:29;2.20;;;0.57;;
72156;SDS011;60035;52.122;5.406;2023-07-20T08:17:55;1.35;;;0.55;;
72156;SDS011;60035;52.122;5.406;2023-07-20T08:20:27;1.30;;;0.65;;
72156;SDS011;60035;52.122;5.406;2023-07-20T08:22:54;1.30;;;0.60;;
72156;SDS011;60035;52.122;5.406;2023-07-20T08:25:21;4.93;;;0.82;;
72156;SDS011;60035;52.122;5.406;2023-07-20T08:27:48;1.20;;;0.50;;
72156;SDS011;60035;52.122;5.406;2023-07-20T08:30:15;2.15;;;0.70;;
72156;SDS011;60035;52.122;5.406;2023-07-20T08:32:41;1.10;;;0.50;;
72156;SDS011;60035;52.122;5.406;2023-07-20T08:35:08;2.58;;;0.50;;
72156;SDS011;60035;52.122;5.406;2023-07-20T08:37:36;0.65;;;0.45;;
72156;SDS011;60035;52.122;5.406;2023-07-20T08:40:03;0.85;;;0.50;;
72156;SDS011;60035;52.122;5.406;2023-07-20T08:42:30;1.45;;;0.40;;
72156;SDS011;60035;52.122;5.406;2023-07-20T08:44:57;1.17;;;0.40;;
72156;SDS011;60035;52.122;5.406;2023-07-20T08:47:25;1.13;;;0.30;;
72156;SDS011;60035;52.122;5.406;2023-07-20T08:49:52;1.35;;;0.50;;
72156;SDS011;60035;52.122;5.406;2023-07-20T08:52:21;3.78;;;0.40;;
72156;SDS011;60035;52.122;5.406;2023-07-20T08:54:47;3.50;;;0.50;;
72156;SDS011;60035;52.122;5.406;2023-07-20T08:57:15;2.80;;;0.60;;
72156;SDS011;60035;52.122;5.406;2023-07-20T08:59:43;1.58;;;0.60;;
72156;SDS011;60035;52.122;5.406;2023-07-20T09:02:10;2.58;;;0.47;;
72156;SDS011;60035;52.122;5.406;2023-07-20T09:04:47;1.65;;;0.40;;
72156;SDS011;60035;52.122;5.406;2023-07-20T09:07:18;1.05;;;0.40;;
72156;SDS011;60035;52.122;5.406;2023-07-20T09:09:46;2.45;;;0.50;;
72156;SDS011;60035;52.122;5.406;2023-07-20T09:12:16;1.50;;;0.60;;
72156;SDS011;60035;52.122;5.406;2023-07-20T09:14:43;1.92;;;0.50;;
72156;SDS011;60035;52.122;5.406;2023-07-20T09:17:14;1.80;;;0.35;;
72156;SDS011;60035;52.122;5.406;2023-07-20T09:19:46;1.38;;;0.40;;
72156;SDS011;60035;52.122;5.406;2023-07-20T09:22:14;2.28;;;0.50;;
72156;SDS011;60035;52.122;5.406;2023-07-20T09:24:41;1.52;;;0.40;;
72156;SDS011;60035;52.122;5.406;2023-07-20T09:27:10;1.25;;;0.50;;
72156;SDS011;60035;52.122;5.406;2023-07-20T09:29:49;1.67;;;0.40;;
72156;SDS011;60035;52.122;5.406;2023-07-20T09:32:19;1.83;;;0.43;;
72156;SDS011;60035;52.122;5.406;2023-07-20T09:34:51;2.20;;;0.50;;
72156;SDS011;60035;52.122;5.406;2023-07-20T09:37:21;7.50;;;0.60;;
72156;SDS011;60035;52.122;5.406;2023-07-20T09:39:49;3.97;;;0.50;;
72156;SDS011;60035;52.122;5.406;2023-07-20T09:42:21;2.60;;;0.50;;
72156;SDS011;60035;52.122;5.406;2023-07-20T09:44:51;1.35;;;0.40;;
72156;SDS011;60035;52.122;5.406;2023-07-20T09:47:22;0.90;;;0.40;;
72156;SDS011;60035;52.122;5.406;2023-07-20T09:49:58;1.55;;;0.30;;
72156;SDS011;60035;52.122;5.406;2023-07-20T09:54:58;1.00;;;0.50;;
72156;SDS011;60035;52.122;5.406;2023-07-20T09:57:27;2.92;;;0.40;;
72156;SDS011;60035;52.122;5.406;2023-07-20T09:59:54;2.33;;;0.30;;
72156;SDS011;60035;52.122;5.406;2023-07-20T10:02:21;2.13;;;0.28;;
72156;SDS011;60035;52.122;5.406;2023-07-20T10:04:52;0.77;;;0.40;;
72156;SDS011;60035;52.122;5.406;2023-07-20T10:07:22;1.35;;;0.35;;
72156;SDS011;60035;52.122;5.406;2023-07-20T10:09:51;0.85;;;0.30;;
72156;SDS011;60035;52.122;5.406;2023-07-20T10:12:20;0.85;;;0.40;;
72156;SDS011;60035;52.122;5.406;2023-07-20T10:14:52;0.90;;;0.30;;
72156;SDS011;60035;52.122;5.406;2023-07-20T10:17:37;2.22;;;0.50;;
72156;SDS011;60035;52.122;5.406;2023-07-20T10:20:10;1.10;;;0.30;;
72156;SDS011;60035;52.122;5.406;2023-07-20T10:22:38;0.68;;;0.30;;
72156;SDS011;60035;52.122;5.406;2023-07-20T10:25:07;1.00;;;0.40;;
72156;SDS011;60035;52.122;5.406;2023-07-20T10:27:35;0.50;;;0.30;;
72156;SDS011;60035;52.122;5.406;2023-07-20T10:30:02;1.85;;;0.32;;
72156;SDS011;60035;52.122;5.406;2023-07-20T10:32:31;1.23;;;0.40;;
72156;SDS011;60035;52.122;5.406;2023-07-20T10:34:58;2.75;;;0.47;;
72156;SDS011;60035;52.122;5.406;2023-07-20T10:45:51;0.70;;;0.60;;
72156;SDS011;60035;52.122;5.406;2023-07-20T10:48:27;0.77;;;0.40;;
72156;SDS011;60035;52.122;5.406;2023-07-20T10:51:14;1.70;;;0.50;;
72156;SDS011;60035;52.122;5.406;2023-07-20T10:53:48;0.70;;;0.20;;
72156;SDS011;60035;52.122;5.406;2023-07-20T10:56:20;2.00;;;0.40;;
72156;SDS011;60035;52.122;5.406;2023-07-20T10:58:49;0.80;;;0.40;;
72156;SDS011;60035;52.122;5.406;2023-07-20T11:01:16;0.50;;;0.30;;
72156;SDS011;60035;52.122;5.406;2023-07-20T11:03:48;3.00;;;0.60;;
72156;SDS011;60035;52.122;5.406;2023-07-20T11:09:13;2.67;;;0.40;;
72156;SDS011;60035;52.122;5.406;2023-07-20T11:11:48;1.20;;;0.40;;
72156;SDS011;60035;52.122;5.406;2023-07-20T11:16:48;2.60;;;0.40;;
72156;SDS011;60035;52.122;5.406;2023-07-20T11:19:20;1.02;;;0.30;;
72156;SDS011;60035;52.122;5.406;2023-07-20T11:21:56;0.80;;;0.30;;
72156;SDS011;60035;52.122;5.406;2023-07-20T11:24:29;1.35;;;0.30;;
72156;SDS011;60035;52.122;5.406;2023-07-20T11:26:57;0.68;;;0.30;;
72156;SDS011;60035;52.122;5.406;2023-07-20T11:29:24;1.00;;;0.30;;
72156;SDS011;60035;52.122;5.406;2023-07-20T11:31:58;1.23;;;0.40;;
72156;SDS011;60035;52.122;5.406;2023-07-20T11:34:25;0.68;;;0.30;;
72156;SDS011;60035;52.122;5.406;2023-07-20T11:36:53;0.82;;;0.25;;
72156;SDS011;60035;52.122;5.406;2023-07-20T11:39:23;0.85;;;0.30;;
72156;SDS011;60035;52.122;5.406;2023-07-20T11:41:53;0.32;;;0.20;;
72156;SDS011;60035;52.122;5.406;2023-07-20T11:44:21;1.80;;;0.60;;
72156;SDS011;60035;52.122;5.406;2023-07-20T11:49:35;1.55;;;0.30;;
72156;SDS011;60035;52.122;5.406;2023-07-20T11:52:06;1.95;;;0.40;;
72156;SDS011;60035;52.122;5.406;2023-07-20T11:54:35;1.02;;;0.30;;
72156;SDS011;60035;52.122;5.406;2023-07-20T11:57:03;0.80;;;0.35;;
72156;SDS011;60035;52.122;5.406;2023-07-20T11:59:31;0.85;;;0.30;;
72156;SDS011;60035;52.122;5.406;2023-07-20T12:02:00;1.52;;;0.50;;
72156;SDS011;60035;52.122;5.406;2023-07-20T12:04:30;1.05;;;0.35;;
72156;SDS011;60035;52.122;5.406;2023-07-20T12:06:58;0.55;;;0.30;;
72156;SDS011;60035;52.122;5.406;2023-07-20T12:09:25;2.08;;;0.30;;
72156;SDS011;60035;52.122;5.406;2023-07-20T12:12:10;1.27;;;0.30;;
72156;SDS011;60035;52.122;5.406;2023-07-20T12:14:39;1.35;;;0.40;;
72156;SDS011;60035;52.122;5.406;2023-07-20T12:17:07;0.70;;;0.38;;
72156;SDS011;60035;52.122;5.406;2023-07-20T12:19:37;0.85;;;0.40;;
72156;SDS011;60035;52.122;5.406;2023-07-20T12:22:04;1.38;;;0.35;;
72156;SDS011;60035;52.122;5.406;2023-07-20T12:24:32;1.25;;;0.30;;
72156;SDS011;60035;52.122;5.406;2023-07-20T12:26:59;0.80;;;0.40;;
72156;SDS011;60035;52.122;5.406;2023-07-20T12:29:25;1.42;;;0.50;;
72156;SDS011;60035;52.122;5.406;2023-07-20T12:31:52;1.02;;;0.50;;
72156;SDS011;60035;52.122;5.406;2023-07-20T12:34:19;0.85;;;0.40;;
72156;SDS011;60035;52.122;5.406;2023-07-20T12:36:45;1.48;;;0.70;;
72156;SDS011;60035;52.122;5.406;2023-07-20T12:39:12;1.52;;;0.50;;
72156;SDS011;60035;52.122;5.406;2023-07-20T12:41:38;1.35;;;0.50;;
72156;SDS011;60035;52.122;5.406;2023-07-20T12:44:05;1.98;;;0.57;;
72156;SDS011;60035;52.122;5.406;2023-07-20T12:46:31;2.28;;;0.60;;
72156;SDS011;60035;52.122;5.406;2023-07-20T12:49:06;13.20;;;0.80;;
72156;SDS011;60035;52.122;5.406;2023-07-20T12:51:33;1.50;;;0.60;;
72156;SDS011;60035;52.122;5.406;2023-07-20T12:53:59;2.40;;;0.60;;
72156;SDS011;60035;52.122;5.406;2023-07-20T12:56:26;2.92;;;0.70;;
72156;SDS011;60035;52.122;5.406;2023-07-20T12:58:55;1.38;;;0.50;;
72156;SDS011;60035;52.122;5.406;2023-07-20T13:01:22;1.30;;;0.57;;
72156;SDS011;60035;52.122;5.406;2023-07-20T13:03:50;5.43;;;1.02;;
72156;SDS011;60035;52.122;5.406;2023-07-20T13:06:20;2.05;;;0.68;;
72156;SDS011;60035;52.122;5.406;2023-07-20T13:08:50;1.58;;;0.50;;
72156;SDS011;60035;52.122;5.406;2023-07-20T13:11:21;1.55;;;0.50;;
72156;SDS011;60035;52.122;5.406;2023-07-20T13:13:49;1.70;;;0.52;;
72156;SDS011;60035;52.122;5.406;2023-07-20T13:16:16;1.00;;;0.55;;
72156;SDS011;60035;52.122;5.406;2023-07-20T13:18:43;1.00;;;0.60;;
72156;SDS011;60035;52.122;5.406;2023-07-20T13:21:10;1.67;;;0.60;;
72156;SDS011;60035;52.122;5.406;2023-07-20T13:23:38;1.13;;;0.50;;
72156;SDS011;60035;52.122;5.406;2023-07-20T13:26:05;1.75;;;0.70;;
72156;SDS011;60035;52.122;5.406;2023-07-20T13:28:33;1.92;;;0.60;;
72156;SDS011;60035;52.122;5.406;2023-07-20T13:31:00;3.28;;;0.60;;
72156;SDS011;60035;52.122;5.406;2023-07-20T13:33:26;1.10;;;0.52;;
72156;SDS011;60035;52.122;5.406;2023-07-20T13:35:54;1.35;;;0.60;;
72156;SDS011;60035;52.122;5.406;2023-07-20T13:38:21;2.50;;;0.60;;
72156;SDS011;60035;52.122;5.406;2023-07-20T13:40:48;1.73;;;0.85;;
72156;SDS011;60035;52.122;5.406;2023-07-20T13:43:15;1.50;;;0.70;;
72156;SDS011;60035;52.122;5.406;2023-07-20T13:45:41;1.67;;;0.52;;
72156;SDS011;60035;52.122;5.406;2023-07-20T13:48:08;2.33;;;0.60;;
72156;SDS011;60035;52.122;5.406;2023-07-20T13:50:35;2.10;;;0.70;;
72156;SDS011;60035;52.122;5.406;2023-07-20T13:53:04;1.30;;;0.70;;
72156;SDS011;60035;52.122;5.406;2023-07-20T13:55:34;1.25;;;0.50;;
72156;SDS011;60035;52.122;5.406;2023-07-20T13:58:05;2.35;;;0.68;;
72156;SDS011;60035;52.122;5.406;2023-07-20T14:00:32;3.72;;;0.75;;
72156;SDS011;60035;52.122;5.406;2023-07-20T14:03:00;1.35;;;0.60;;
72156;SDS011;60035;52.122;5.406;2023-07-20T14:05:30;2.38;;;0.70;;
72156;SDS011;60035;52.122;5.406;2023-07-20T14:07:59;2.17;;;0.60;;
72156;SDS011;60035;52.122;5.406;2023-07-20T14:10:26;2.10;;;0.63;;
72156;SDS011;60035;52.122;5.406;2023-07-20T14:12:52;1.35;;;0.50;;
72156;SDS011;60035;52.122;5.406;2023-07-20T14:15:19;1.25;;;0.50;;
72156;SDS011;60035;52.122;5.406;2023-07-20T14:17:46;2.13;;;0.68;;
72156;SDS011;60035;52.122;5.406;2023-07-20T14:20:13;2.45;;;0.80;;
72156;SDS011;60035;52.122;5.406;2023-07-20T14:22:42;1.35;;;0.70;;
72156;SDS011;60035;52.122;5.406;2023-07-20T14:25:09;3.22;;;0.70;;
72156;SDS011;60035;52.122;5.406;2023-07-20T14:27:35;3.63;;;0.80;;
72156;SDS011;60035;52.122;5.406;2023-07-20T14:30:03;3.08;;;0.60;;
72156;SDS011;60035;52.122;5.406;2023-07-20T14:32:30;2.97;;;0.70;;
72156;SDS011;60035;52.122;5.406;2023-07-20T14:35:02;1.00;;;0.50;;
72156;SDS011;60035;52.122;5.406;2023-07-20T14:37:30;1.67;;;0.60;;
72156;SDS011;60035;52.122;5.406;2023-07-20T14:39:56;2.42;;;0.70;;
72156;SDS011;60035;52.122;5.406;2023-07-20T14:42:23;1.92;;;0.60;;
72156;SDS011;60035;52.122;5.406;2023-07-20T14:44:51;0.80;;;0.52;;
72156;SDS011;60035;52.122;5.406;2023-07-20T14:47:18;2.70;;;0.77;;
72156;SDS011;60035;52.122;5.406;2023-07-20T14:49:45;1.95;;;0.73;;
72156;SDS011;60035;52.122;5.406;2023-07-20T14:52:11;1.73;;;0.60;;
72156;SDS011;60035;52.122;5.406;2023-07-20T14:54:42;1.48;;;0.63;;
72156;SDS011;60035;52.122;5.406;2023-07-20T14:57:08;1.45;;;0.73;;
72156;SDS011;60035;52.122;5.406;2023-07-20T14:59:40;1.20;;;0.70;;
72156;SDS011;60035;52.122;5.406;2023-07-20T15:02:08;2.05;;;0.70;;
72156;SDS011;60035;52.122;5.406;2023-07-20T15:04:34;1.77;;;0.60;;
72156;SDS011;60035;52.122;5.406;2023-07-20T15:07:01;3.05;;;0.77;;
72156;SDS011;60035;52.122;5.406;2023-07-20T15:09:27;3.25;;;0.90;;
72156;SDS011;60035;52.122;5.406;2023-07-20T15:11:57;1.92;;;0.75;;
72156;SDS011;60035;52.122;5.406;2023-07-20T15:14:23;1.58;;;0.70;;
72156;SDS011;60035;52.122;5.406;2023-07-20T15:16:50;2.85;;;0.77;;
72156;SDS011;60035;52.122;5.406;2023-07-20T15:19:16;1.00;;;0.50;;
72156;SDS011;60035;52.122;5.406;2023-07-20T15:21:43;2.08;;;0.75;;